Time;durP1;ratioP1;P1;durP2;ratioP2;P2;SDS_P1;SDS_P2;PMS_P1;PMS_P2;Temp;Humidity;BMP_temperature;BMP_pressure;BME280_temperature;BME280_humidity;BME280_pressure;Samples;Min_cycle;Max_cycle;Signal;HPM_P1;HPM_P2
2022/03/03 00:01:31;;;;;;;;;;;-2.40;96.40;;;;;;5103488;28;20523;-79
2022/03/03 00:03:56;;;;;;;;;;;-2.10;96.60;;;;;;5103457;28;19908;-79
2022/03/03 00:06:22;;;;;;;;;;;-2.40;96.30;;;;;;5103900;28;19912;-80
2022/03/03 00:08:47;;;;;;;;;;;-1.40;96.50;;;;;;5103312;28;20299;-79
2022/03/03 00:11:13;;;;;;;;;;;-2.40;96.30;;;;;;5102545;28;19980;-79
2022/03/03 00:13:38;;;;;;;;;;;-2.50;96.40;;;;;;5103503;28;19907;-79
2022/03/03 00:16:04;;;;;;;;;;;-2.50;96.40;;;;;;5103009;28;20002;-79
2022/03/03 00:18:30;;;;;;;;;;;-2.50;96.30;;;;;;5103894;28;19916;-79
2022/03/03 00:20:55;;;;;;;;;;;-1.40;96.80;;;;;;5104043;28;20286;-79
2022/03/03 00:23:21;;;;;;;;;;;-2.60;96.40;;;;;;5104098;28;20052;-80
2022/03/03 00:25:47;;;;;;;;;;;-0.30;97.00;;;;;;5103586;28;19926;-79
2022/03/03 00:28:12;;;;;;;;;;;-1.00;96.80;;;;;;5103779;28;19916;-79
2022/03/03 00:30:38;;;;;;;;;;;-2.70;96.40;;;;;;5104045;28;20015;-79
2022/03/03 00:33:03;;;;;;;;;;;-0.50;97.30;;;;;;5105419;28;20271;-79
2022/03/03 00:35:29;;;;;;;;;;;-2.70;96.70;;;;;;5105790;28;19911;-79
2022/03/03 00:37:54;;;;;;;;;;;-2.70;96.50;;;;;;5086322;28;19907;-79
2022/03/03 00:40:20;;;;;;;;;;;-2.70;96.70;;;;;;5104585;28;19999;-80
2022/03/03 00:42:45;;;;;;;;;;;-2.70;96.70;;;;;;5105302;28;20422;-79
2022/03/03 00:45:11;;;;;;;;;;;-2.70;96.70;;;;;;5105383;28;19947;-79
2022/03/03 00:47:37;;;;;;;;;;;-2.80;96.30;;;;;;5104529;28;19923;-79
2022/03/03 00:50:02;;;;;;;;;;;-2.80;96.60;;;;;;5105848;28;20426;-79
2022/03/03 00:52:28;;;;;;;;;;;-2.80;96.50;;;;;;5106137;28;19907;-79
2022/03/03 00:54:53;;;;;;;;;;;-2.90;96.60;;;;;;5097759;28;20296;-79
2022/03/03 00:57:19;;;;;;;;;;;-2.30;96.50;;;;;;5117200;28;19907;-80
2022/03/03 00:59:45;;;;;;;;;;;-2.90;96.90;;;;;;5116710;28;20432;-79
2022/03/03 01:02:10;;;;;;;;;;;-2.80;96.50;;;;;;5098172;28;19943;-79
2022/03/03 01:04:36;;;;;;;;;;;-2.80;96.60;;;;;;5105385;28;19943;-80
2022/03/03 01:07:02;;;;;;;;;;;-2.80;96.50;;;;;;5102774;28;20231;-80
2022/03/03 01:09:27;;;;;;;;;;;-2.90;96.60;;;;;;5103018;28;20374;-79
2022/03/03 01:11:53;;;;;;;;;;;-2.90;96.60;;;;;;5102414;28;19912;-79
2022/03/03 01:14:21;;;;;;;;;;;-1.60;96.90;;;;;;5102068;28;20100;-79
2022/03/03 01:16:47;;;;;;;;;;;-2.60;96.50;;;;;;5102115;28;19912;-79
2022/03/03 01:19:13;;;;;;;;;;;-2.90;96.50;;;;;;5102541;28;19915;-79
2022/03/03 01:21:39;;;;;;;;;;;-2.80;96.70;;;;;;5102473;28;20215;-79
2022/03/03 01:24:05;;;;;;;;;;;-2.80;96.40;;;;;;5102271;28;19912;-79
2022/03/03 01:26:30;;;;;;;;;;;-3.00;96.40;;;;;;5102680;28;19927;-79
2022/03/03 01:28:56;;;;;;;;;;;-3.00;96.40;;;;;;5085001;28;19907;-80
2022/03/03 01:31:21;;;;;;;;;;;-3.10;96.50;;;;;;5104213;28;19997;-79
2022/03/03 01:33:47;;;;;;;;;;;-3.10;96.60;;;;;;5103525;28;19919;-79
2022/03/03 01:36:13;;;;;;;;;;;-3.20;96.60;;;;;;5084330;28;19923;-79
2022/03/03 01:38:38;;;;;;;;;;;-3.30;96.60;;;;;;5102894;28;20018;-79
2022/03/03 01:41:04;;;;;;;;;;;-1.60;97.20;;;;;;5104305;28;19912;-79
2022/03/03 01:43:29;;;;;;;;;;;0.20;97.60;;;;;;5104063;28;19908;-80
2022/03/03 01:45:55;;;;;;;;;;;-3.30;96.90;;;;;;5104495;28;19969;-79
2022/03/03 01:48:20;;;;;;;;;;;-3.40;96.90;;;;;;5109585;28;20301;-80
2022/03/03 01:50:46;;;;;;;;;;;-3.40;97.10;;;;;;5112106;28;20139;-79
2022/03/03 01:53:12;;;;;;;;;;;-2.90;97.20;;;;;;5112224;28;19908;-80
2022/03/03 01:55:37;;;;;;;;;;;-3.40;96.70;;;;;;5102900;28;19912;-79
2022/03/03 01:58:04;;;;;;;;;;;-3.40;96.80;;;;;;5084172;28;19919;-79
2022/03/03 02:00:30;;;;;;;;;;;-2.90;97.00;;;;;;5103625;28;20211;-79
2022/03/03 02:02:55;;;;;;;;;;;-3.40;97.00;;;;;;5103086;28;20240;-79
2022/03/03 02:05:21;;;;;;;;;;;-3.50;96.90;;;;;;5085630;28;19923;-79
2022/03/03 02:07:46;;;;;;;;;;;-3.20;97.20;;;;;;5084902;28;19988;-79
2022/03/03 02:10:12;;;;;;;;;;;-2.40;97.30;;;;;;5103763;28;19908;-78
2022/03/03 02:12:39;;;;;;;;;;;-2.80;97.20;;;;;;5104256;28;20207;-79
2022/03/03 02:15:05;;;;;;;;;;;-3.60;97.00;;;;;;5087446;28;19914;-79
2022/03/03 02:17:30;;;;;;;;;;;-3.60;97.00;;;;;;5105299;28;19911;-79
2022/03/03 02:19:57;;;;;;;;;;;-3.60;97.10;;;;;;5106660;28;20411;-80
2022/03/03 02:22:22;;;;;;;;;;;-3.60;97.00;;;;;;5111527;28;19908;-80
2022/03/03 02:24:48;;;;;;;;;;;-3.70;97.00;;;;;;5111118;28;20269;-79
2022/03/03 02:27:13;;;;;;;;;;;-2.40;97.40;;;;;;5092046;28;19943;-79
2022/03/03 02:29:39;;;;;;;;;;;-3.70;97.20;;;;;;5102368;28;20039;-79
2022/03/03 02:32:05;;;;;;;;;;;-3.80;97.30;;;;;;5101422;28;19939;-79
2022/03/03 02:34:31;;;;;;;;;;;-3.70;97.50;;;;;;5101783;28;19916;-79
2022/03/03 02:36:57;;;;;;;;;;;-3.80;97.20;;;;;;5101412;28;20161;-79
2022/03/03 02:39:23;;;;;;;;;;;-3.80;97.40;;;;;;5102185;28;20332;-79
2022/03/03 02:41:48;;;;;;;;;;;-3.90;97.30;;;;;;5084551;28;19919;-80
2022/03/03 02:44:14;;;;;;;;;;;-1.60;97.90;;;;;;5102692;28;19915;-79
2022/03/03 02:46:40;;;;;;;;;;;-4.10;97.20;;;;;;5102452;28;20422;-80
2022/03/03 02:49:05;;;;;;;;;;;-3.40;97.40;;;;;;5085280;28;19912;-79
2022/03/03 02:51:31;;;;;;;;;;;-1.80;97.80;;;;;;5113872;28;20233;-79
2022/03/03 02:53:56;;;;;;;;;;;-3.90;97.50;;;;;;5113739;28;19916;-79
2022/03/03 02:56:23;;;;;;;;;;;-4.00;97.50;;;;;;5083621;28;20301;-79
2022/03/03 02:58:49;;;;;;;;;;;-2.80;97.70;;;;;;5082715;28;19914;-79
2022/03/03 03:01:14;;;;;;;;;;;-2.70;97.80;;;;;;5083053;28;20006;-79
2022/03/03 03:03:41;;;;;;;;;;;-3.60;97.30;;;;;;5101943;28;19961;-79
2022/03/03 03:06:07;;;;;;;;;;;-3.90;97.20;;;;;;5101892;28;19908;-79
2022/03/03 03:08:33;;;;;;;;;;;-3.00;97.40;;;;;;5101982;28;19918;-79
2022/03/03 03:10:59;;;;;;;;;;;-2.80;97.40;;;;;;5082949;28;20006;-79
2022/03/03 03:13:24;;;;;;;;;;;-3.90;97.00;;;;;;5100798;28;20414;-79
2022/03/03 03:15:50;;;;;;;;;;;-4.00;96.90;;;;;;5101546;28;19931;-79
2022/03/03 03:18:16;;;;;;;;;;;-3.60;97.20;;;;;;5083563;28;20337;-79
2022/03/03 03:20:43;;;;;;;;;;;-4.20;97.20;;;;;;5083684;28;20561;-79
2022/03/03 03:23:10;;;;;;;;;;;-3.10;97.40;;;;;;5102090;28;20589;-79
2022/03/03 03:25:39;;;;;;;;;;;-2.70;97.80;;;;;;5082830;28;19919;-79
2022/03/03 03:28:06;;;;;;;;;;;-4.30;97.10;;;;;;5102142;28;20697;-79
2022/03/03 03:30:32;;;;;;;;;;;-4.20;97.30;;;;;;5084181;28;20290;-79
2022/03/03 03:32:58;;;;;;;;;;;-5.80;97.00;;;;;;5102142;28;19908;-78
2022/03/03 03:35:24;;;;;;;;;;;-4.40;97.50;;;;;;5101592;28;19907;-79
2022/03/03 03:37:49;;;;;;;;;;;-3.20;98.20;;;;;;5101545;28;20298;-80
2022/03/03 03:40:16;;;;;;;;;;;-3.60;97.90;;;;;;5101567;28;19908;-79
2022/03/03 03:42:41;;;;;;;;;;;-3.90;97.50;;;;;;5083853;28;20409;-79
2022/03/03 03:45:08;;;;;;;;;;;-1.30;98.20;;;;;;5101743;28;20195;-79
2022/03/03 03:47:33;;;;;;;;;;;-4.40;97.10;;;;;;5109137;28;19928;-80
2022/03/03 03:50:02;;;;;;;;;;;-4.40;97.20;;;;;;5110485;28;19943;-79
2022/03/03 03:52:28;;;;;;;;;;;-3.60;97.30;;;;;;5108971;28;19918;-78
2022/03/03 03:54:53;;;;;;;;;;;-4.50;97.40;;;;;;5109531;28;19948;-79
2022/03/03 03:57:19;;;;;;;;;;;-4.50;97.50;;;;;;5109566;28;19907;-79
2022/03/03 03:59:44;;;;;;;;;;;-3.40;97.90;;;;;;5112007;28;19964;-80
2022/03/03 04:02:10;;;;;;;;;;;-4.50;97.40;;;;;;5114765;28;19934;-80
2022/03/03 04:04:36;;;;;;;;;;;-3.80;97.80;;;;;;5094878;28;19908;-79
2022/03/03 04:07:01;;;;;;;;;;;-4.60;97.70;;;;;;5116104;28;19916;-79
2022/03/03 04:09:27;;;;;;;;;;;-4.60;97.50;;;;;;5118018;28;19918;-79
2022/03/03 04:11:53;;;;;;;;;;;-4.60;97.40;;;;;;5100042;28;20029;-80
2022/03/03 04:14:18;;;;;;;;;;;-4.60;97.50;;;;;;5115391;28;20410;-79
2022/03/03 04:16:44;;;;;;;;;;;-2.80;97.90;;;;;;5102559;28;19923;-79
2022/03/03 04:19:09;;;;;;;;;;;-4.70;97.30;;;;;;5102423;28;19907;-80
2022/03/03 04:21:35;;;;;;;;;;;-4.70;97.50;;;;;;5104168;28;20146;-79
2022/03/03 04:24:00;;;;;;;;;;;-4.70;97.50;;;;;;5103572;28;19984;-79
2022/03/03 04:26:26;;;;;;;;;;;-4.20;97.70;;;;;;5103112;28;19919;-79
2022/03/03 04:28:51;;;;;;;;;;;-4.70;97.50;;;;;;5103437;28;19916;-79
2022/03/03 04:31:17;;;;;;;;;;;-4.70;97.50;;;;;;5103133;28;19908;-79
2022/03/03 04:33:43;;;;;;;;;;;-3.40;97.70;;;;;;5094926;28;19912;-79
2022/03/03 04:36:08;;;;;;;;;;;-4.70;97.30;;;;;;5084328;28;20196;-79
2022/03/03 04:38:34;;;;;;;;;;;-1.70;98.10;;;;;;5103684;28;20382;-79
2022/03/03 04:40:59;;;;;;;;;;;-3.50;97.70;;;;;;5102557;28;19915;-79
2022/03/03 04:43:25;;;;;;;;;;;-4.80;97.20;;;;;;5102346;28;20089;-79
2022/03/03 04:45:51;;;;;;;;;;;-3.50;97.40;;;;;;5101739;28;20326;-79
2022/03/03 04:48:16;;;;;;;;;;;-2.80;97.60;;;;;;5083444;28;20663;-80
2022/03/03 04:50:42;;;;;;;;;;;-2.60;97.80;;;;;;5101948;28;19908;-79
2022/03/03 04:53:07;;;;;;;;;;;-4.70;97.10;;;;;;5083677;28;19908;-79
2022/03/03 04:55:33;;;;;;;;;;;-4.80;97.10;;;;;;5083894;28;20676;-80
2022/03/03 04:57:58;;;;;;;;;;;-4.90;97.20;;;;;;5101794;28;19908;-79
2022/03/03 05:00:24;;;;;;;;;;;-3.20;97.80;;;;;;5101635;28;19963;-79
2022/03/03 05:02:49;;;;;;;;;;;-4.40;97.50;;;;;;5101721;28;20081;-79
2022/03/03 05:05:15;;;;;;;;;;;-5.00;97.30;;;;;;5101957;28;19908;-78
2022/03/03 05:07:41;;;;;;;;;;;-3.70;97.70;;;;;;5101205;28;20414;-79
2022/03/03 05:10:07;;;;;;;;;;;-5.00;97.60;;;;;;5081656;28;20373;-80
2022/03/03 05:12:33;;;;;;;;;;;-5.00;97.60;;;;;;5100261;28;20412;-79
2022/03/03 05:14:59;;;;;;;;;;;-4.40;97.70;;;;;;5099083;28;19943;-79
2022/03/03 05:17:24;;;;;;;;;;;-3.40;97.60;;;;;;5101167;28;20336;-78
2022/03/03 05:19:50;;;;;;;;;;;-5.00;97.10;;;;;;5080296;28;20444;-79
2022/03/03 05:22:15;;;;;;;;;;;-4.60;97.50;;;;;;5106057;28;19954;-79
2022/03/03 05:24:42;;;;;;;;;;;-5.00;97.40;;;;;;5120109;28;19952;-78
2022/03/03 05:27:08;;;;;;;;;;;-5.00;97.30;;;;;;5119076;28;19930;-79
2022/03/03 05:29:34;;;;;;;;;;;-5.00;97.20;;;;;;5122452;28;19916;-79
2022/03/03 05:31:59;;;;;;;;;;;-5.00;97.20;;;;;;5115673;28;20278;-79
2022/03/03 05:34:28;;;;;;;;;;;-5.00;97.10;;;;;;5102479;28;19915;-79
2022/03/03 05:43:28;;;;;;;;;;;-5.10;97.30;;;;;;5229693;22;19982;-79
2022/03/03 05:45:54;;;;;;;;;;;-5.00;97.20;;;;;;5117139;28;19916;-79
2022/03/03 05:48:20;;;;;;;;;;;-5.00;97.00;;;;;;5104284;28;19951;-79
2022/03/03 05:50:46;;;;;;;;;;;-3.30;97.30;;;;;;5101318;28;20208;-79
2022/03/03 05:53:11;;;;;;;;;;;-5.00;97.30;;;;;;5103585;28;19908;-79
2022/03/03 05:55:42;;;;;;;;;;;-5.00;96.90;;;;;;5105451;28;19908;-79
2022/03/03 05:58:10;;;;;;;;;;;-4.90;96.70;;;;;;5084112;28;20010;-79
2022/03/03 06:00:35;;;;;;;;;;;-4.50;97.00;;;;;;5101582;28;19907;-79
2022/03/03 06:03:02;;;;;;;;;;;-5.10;97.30;;;;;;5100700;28;19922;-79
2022/03/03 06:05:28;;;;;;;;;;;-5.10;97.20;;;;;;5101252;28;19911;-79
2022/03/03 06:07:54;;;;;;;;;;;-5.00;97.10;;;;;;5100289;28;19948;-79
2022/03/03 06:10:24;;;;;;;;;;;-4.80;96.60;;;;;;5100695;28;19907;-78
2022/03/03 06:12:52;;;;;;;;;;;-4.90;96.60;;;;;;5101152;28;20014;-79
2022/03/03 06:15:21;;;;;;;;;;;-4.90;96.70;;;;;;5104813;28;19919;-79
2022/03/03 06:17:47;;;;;;;;;;;-4.80;96.50;;;;;;5084709;28;20494;-79
2022/03/03 06:20:13;;;;;;;;;;;-3.80;96.70;;;;;;5101927;28;19908;-79
2022/03/03 06:22:39;;;;;;;;;;;-4.70;96.20;;;;;;5102119;28;20381;-79
2022/03/03 06:25:05;;;;;;;;;;;-3.80;96.40;;;;;;5104260;28;19912;-79
2022/03/03 06:27:33;;;;;;;;;;;-4.50;96.20;;;;;;5101154;28;20473;-79
2022/03/03 06:29:59;;;;;;;;;;;-4.10;96.20;;;;;;5102455;28;19914;-79
2022/03/03 06:32:24;;;;;;;;;;;-4.50;95.90;;;;;;5103250;28;19933;-79
2022/03/03 06:34:50;;;;;;;;;;;-3.70;96.20;;;;;;5102640;28;19908;-79
2022/03/03 06:37:16;;;;;;;;;;;-4.20;95.80;;;;;;5102669;28;20190;-79
2022/03/03 06:39:42;;;;;;;;;;;-2.70;95.90;;;;;;5103291;28;20216;-78
2022/03/03 06:42:07;;;;;;;;;;;-4.10;95.50;;;;;;5103190;28;20081;-79
2022/03/03 06:44:33;;;;;;;;;;;-4.60;95.40;;;;;;5101500;28;19923;-79
2022/03/03 06:46:59;;;;;;;;;;;-3.90;95.40;;;;;;5108097;28;19920;-79
2022/03/03 06:49:24;;;;;;;;;;;-3.70;95.20;;;;;;5105979;28;19912;-80
2022/03/03 06:51:52;;;;;;;;;;;-3.60;95.10;;;;;;5104788;28;19911;-78
2022/03/03 06:54:18;;;;;;;;;;;-3.30;94.50;;;;;;5105472;28;20068;-79
2022/03/03 06:56:57;;;;;;;;;;;-2.20;94.70;;;;;;5085024;28;20444;-79
2022/03/03 06:59:24;;;;;;;;;;;-3.30;94.20;;;;;;5101977;28;19908;-79
2022/03/03 07:01:51;;;;;;;;;;;-3.20;94.20;;;;;;5102164;28;19977;-79
2022/03/03 07:04:18;;;;;;;;;;;-0.50;94.70;;;;;;5109651;28;20125;-80
2022/03/03 07:06:44;;;;;;;;;;;-2.90;93.90;;;;;;5099703;28;19924;-80
2022/03/03 07:09:10;;;;;;;;;;;-2.80;93.60;;;;;;5101047;28;19943;-79
2022/03/03 07:11:39;;;;;;;;;;;-2.10;93.20;;;;;;5101512;28;19907;-79
2022/03/03 07:14:05;;;;;;;;;;;-2.50;92.60;;;;;;5101639;28;19919;-79
2022/03/03 07:16:36;;;;;;;;;;;-2.50;92.10;;;;;;5101963;28;20335;-79
2022/03/03 07:19:03;;;;;;;;;;;-2.40;92.20;;;;;;5101405;28;19912;-80
2022/03/03 07:21:32;;;;;;;;;;;-2.30;92.20;;;;;;5087934;28;19914;-79
2022/03/03 07:24:04;;;;;;;;;;;-2.20;92.30;;;;;;5108474;28;19912;-79
2022/03/03 07:26:31;;;;;;;;;;;-2.10;92.10;;;;;;5086623;28;20467;-79
2022/03/03 07:28:59;;;;;;;;;;;-1.50;92.40;;;;;;5087872;28;20142;-79
2022/03/03 07:31:25;;;;;;;;;;;-1.90;92.40;;;;;;5085651;28;20118;-79
2022/03/03 07:33:51;;;;;;;;;;;-1.80;92.40;;;;;;5104457;28;19912;-79
2022/03/03 07:36:18;;;;;;;;;;;-1.60;92.40;;;;;;5103040;28;19914;-79
2022/03/03 07:38:50;;;;;;;;;;;-1.50;92.10;;;;;;5103324;28;19919;-79
2022/03/03 07:41:16;;;;;;;;;;;-0.80;92.00;;;;;;5104938;28;20191;-79
2022/03/03 07:43:41;;;;;;;;;;;-1.10;91.30;;;;;;5110482;28;19967;-78
2022/03/03 07:46:07;;;;;;;;;;;-0.90;91.10;;;;;;5107418;28;19924;-79
2022/03/03 07:48:34;;;;;;;;;;;-0.80;90.70;;;;;;5092390;28;20392;-79
2022/03/03 07:51:01;;;;;;;;;;;-0.60;90.60;;;;;;5111461;28;19915;-79
2022/03/03 07:53:26;;;;;;;;;;;-0.70;90.40;;;;;;5109924;28;19907;-79
2022/03/03 07:55:55;;;;;;;;;;;-0.40;90.10;;;;;;5110263;28;20076;-79
2022/03/03 07:58:23;;;;;;;;;;;0.00;90.10;;;;;;5110510;28;19923;-79
2022/03/03 08:00:50;;;;;;;;;;;-0.30;89.70;;;;;;5104483;28;19908;-79
2022/03/03 08:03:18;;;;;;;;;;;-0.30;89.80;;;;;;5103423;28;19908;-79
2022/03/03 08:05:45;;;;;;;;;;;-0.20;89.10;;;;;;5102392;28;19908;-79
2022/03/03 08:08:13;;;;;;;;;;;-0.10;89.00;;;;;;5102295;28;20007;-78
2022/03/03 08:10:40;;;;;;;;;;;0.00;88.20;;;;;;5101996;28;19915;-79
2022/03/03 08:13:06;;;;;;;;;;;0.10;87.50;;;;;;5102355;28;20011;-79
2022/03/03 08:15:31;;;;;;;;;;;0.20;87.00;;;;;;5101594;28;20010;-79
2022/03/03 08:17:57;;;;;;;;;;;0.30;87.20;;;;;;5101906;28;19908;-78
2022/03/03 08:20:22;;;;;;;;;;;0.40;87.30;;;;;;5101595;28;20199;-79
2022/03/03 08:22:48;;;;;;;;;;;0.60;87.10;;;;;;5101722;28;19907;-79
2022/03/03 08:25:14;;;;;;;;;;;0.70;85.40;;;;;;5084177;28;19908;-79
2022/03/03 08:27:40;;;;;;;;;;;0.90;84.30;;;;;;5102487;28;20011;-78
2022/03/03 08:30:07;;;;;;;;;;;1.00;84.00;;;;;;5102795;28;20003;-79
2022/03/03 08:32:40;;;;;;;;;;;1.20;82.90;;;;;;5102730;28;20417;-79
2022/03/03 08:35:09;;;;;;;;;;;1.20;82.70;;;;;;5086358;28;19915;-79
2022/03/03 08:37:36;;;;;;;;;;;1.50;83.00;;;;;;5085057;28;20127;-78
2022/03/03 08:40:03;;;;;;;;;;;1.70;81.80;;;;;;5102911;28;19918;-79
2022/03/03 08:42:30;;;;;;;;;;;1.90;82.20;;;;;;5083770;28;19915;-78
2022/03/03 08:44:58;;;;;;;;;;;2.00;80.80;;;;;;5102236;28;20262;-79
2022/03/03 08:47:24;;;;;;;;;;;2.20;78.60;;;;;;5099373;28;20014;-79
2022/03/03 08:49:57;;;;;;;;;;;2.20;79.50;;;;;;5101186;28;19952;-79
2022/03/03 08:52:23;;;;;;;;;;;2.30;78.40;;;;;;5101723;28;19997;-79
2022/03/03 08:54:49;;;;;;;;;;;2.30;78.60;;;;;;5100821;28;20374;-79
2022/03/03 08:57:14;;;;;;;;;;;2.40;77.00;;;;;;5103139;28;19914;-80
2022/03/03 08:59:40;;;;;;;;;;;2.60;77.30;;;;;;5084746;28;20258;-79
2022/03/03 09:02:05;;;;;;;;;;;2.70;77.80;;;;;;5102049;28;20010;-79
2022/03/03 09:04:31;;;;;;;;;;;2.90;76.50;;;;;;5101825;28;19950;-79
2022/03/03 09:06:57;;;;;;;;;;;2.90;76.60;;;;;;5101371;28;19955;-79
2022/03/03 09:09:22;;;;;;;;;;;3.00;76.40;;;;;;5102010;28;19908;-79
2022/03/03 09:11:48;;;;;;;;;;;3.20;75.00;;;;;;5101510;28;19922;-80
2022/03/03 09:14:14;;;;;;;;;;;3.30;74.40;;;;;;5102635;28;19915;-79
2022/03/03 09:16:40;;;;;;;;;;;3.40;73.50;;;;;;5103207;28;20399;-80
2022/03/03 09:19:07;;;;;;;;;;;3.60;73.10;;;;;;5082940;28;19930;-80
2022/03/03 09:21:32;;;;;;;;;;;3.50;72.10;;;;;;5085094;28;19908;-79
2022/03/03 09:23:58;;;;;;;;;;;3.70;73.30;;;;;;5102006;28;19919;-79
2022/03/03 09:26:23;;;;;;;;;;;3.90;72.80;;;;;;5101413;28;19915;-79
2022/03/03 09:28:49;;;;;;;;;;;4.10;72.10;;;;;;5101285;28;19912;-79
2022/03/03 09:31:15;;;;;;;;;;;4.20;70.20;;;;;;5102069;28;19950;-79
2022/03/03 09:33:40;;;;;;;;;;;4.40;69.40;;;;;;5102717;28;19923;-79
2022/03/03 09:36:06;;;;;;;;;;;4.60;64.40;;;;;;5106374;28;20390;-80
2022/03/03 09:38:31;;;;;;;;;;;4.70;61.50;;;;;;5109245;28;19937;-80
2022/03/03 09:40:57;;;;;;;;;;;4.80;60.50;;;;;;5102015;28;20138;-79
2022/03/03 09:43:25;;;;;;;;;;;4.70;58.80;;;;;;5101423;28;19955;-80
2022/03/03 09:45:51;;;;;;;;;;;4.80;57.60;;;;;;5101817;28;19932;-79
2022/03/03 09:48:17;;;;;;;;;;;4.80;57.80;;;;;;5102007;28;19972;-79
2022/03/03 09:50:44;;;;;;;;;;;5.00;57.00;;;;;;5102335;28;20096;-80
2022/03/03 09:53:15;;;;;;;;;;;5.20;57.60;;;;;;5103886;28;19916;-80
2022/03/03 09:55:41;;;;;;;;;;;5.30;55.00;;;;;;5083952;28;19916;-79
2022/03/03 09:58:07;;;;;;;;;;;5.20;51.70;;;;;;5101692;28;19912;-79
2022/03/03 10:00:37;;;;;;;;;;;5.10;51.00;;;;;;5102314;28;19915;-79
2022/03/03 10:03:08;;;;;;;;;;;4.90;50.20;;;;;;5103221;28;20356;-79
2022/03/03 10:05:46;;;;;;;;;;;5.00;51.90;;;;;;5102910;28;19934;-79
2022/03/03 10:08:16;;;;;;;;;;;5.20;50.80;;;;;;5105961;28;20140;-80
2022/03/03 10:10:43;;;;;;;;;;;5.10;48.90;;;;;;5111298;28;19908;-80
2022/03/03 10:13:10;;;;;;;;;;;5.20;49.80;;;;;;5112075;28;19908;-80
2022/03/03 10:15:36;;;;;;;;;;;5.50;48.10;;;;;;5077149;28;19915;-80
2022/03/03 10:18:04;;;;;;;;;;;5.50;42.40;;;;;;5105023;28;19908;-80
2022/03/03 10:20:34;;;;;;;;;;;5.60;43.20;;;;;;5110817;28;19933;-79
2022/03/03 10:23:00;;;;;;;;;;;5.70;44.00;;;;;;5113064;28;19907;-80
2022/03/03 10:25:30;;;;;;;;;;;5.80;42.60;;;;;;5110210;28;20026;-79
2022/03/03 10:27:56;;;;;;;;;;;5.50;43.70;;;;;;5109987;28;19919;-79
2022/03/03 10:30:22;;;;;;;;;;;5.70;45.00;;;;;;5102539;28;20277;-80
2022/03/03 10:32:48;;;;;;;;;;;5.80;45.10;;;;;;5100504;28;20003;-80
2022/03/03 10:35:17;;;;;;;;;;;5.80;43.30;;;;;;5100639;28;19912;-79
2022/03/03 10:37:44;;;;;;;;;;;5.80;43.10;;;;;;5099989;28;20282;-80
2022/03/03 10:40:11;;;;;;;;;;;5.80;45.00;;;;;;5099560;28;20437;-79
2022/03/03 10:42:40;;;;;;;;;;;6.00;44.60;;;;;;5099565;28;19912;-79
2022/03/03 10:45:08;;;;;;;;;;;6.30;43.90;;;;;;5099841;28;19919;-79
2022/03/03 10:47:33;;;;;;;;;;;6.50;43.30;;;;;;5081099;28;19915;-80
2022/03/03 10:50:01;;;;;;;;;;;6.50;43.50;;;;;;5100349;28;19914;-79
2022/03/03 10:52:39;;;;;;;;;;;6.80;43.10;;;;;;5101515;28;19908;-79
2022/03/03 10:55:07;;;;;;;;;;;6.90;42.50;;;;;;5086770;28;19954;-79
2022/03/03 10:57:39;;;;;;;;;;;6.70;42.80;;;;;;5091469;28;19912;-79
2022/03/03 11:00:06;;;;;;;;;;;6.70;43.80;;;;;;5107686;28;19908;-80
2022/03/03 11:02:32;;;;;;;;;;;7.00;42.60;;;;;;5087813;28;19907;-79
2022/03/03 11:04:58;;;;;;;;;;;6.90;42.00;;;;;;5114452;28;20294;-79
2022/03/03 11:07:24;;;;;;;;;;;7.00;42.40;;;;;;5095870;28;19946;-80
2022/03/03 11:09:49;;;;;;;;;;;7.00;41.70;;;;;;5090866;28;20081;-79
2022/03/03 11:12:16;;;;;;;;;;;7.20;42.10;;;;;;5111313;28;19937;-79
2022/03/03 11:14:42;;;;;;;;;;;7.50;43.10;;;;;;5110875;28;20072;-79
2022/03/03 11:17:07;;;;;;;;;;;7.70;42.20;;;;;;5110256;28;19908;-80
2022/03/03 11:19:33;;;;;;;;;;;7.90;43.00;;;;;;5110003;28;20287;-80
2022/03/03 11:21:59;;;;;;;;;;;8.10;41.00;;;;;;5110946;28;19912;-80
2022/03/03 11:24:25;;;;;;;;;;;7.80;40.50;;;;;;5111349;28;19915;-79
2022/03/03 11:26:51;;;;;;;;;;;8.30;40.30;;;;;;5109714;28;19977;-79
2022/03/03 11:29:18;;;;;;;;;;;8.30;40.70;;;;;;5114533;28;19912;-80
2022/03/03 11:31:45;;;;;;;;;;;8.10;40.70;;;;;;5109504;28;20196;-80
2022/03/03 11:34:31;;;;;;;;;;;8.10;40.50;;;;;;5111795;28;20007;-79
2022/03/03 11:36:59;;;;;;;;;;;8.20;40.80;;;;;;5110381;28;19908;-79
2022/03/03 11:39:34;;;;;;;;;;;9.50;41.00;;;;;;5109578;28;19969;-80
2022/03/03 11:42:14;;;;;;;;;;;8.50;40.60;;;;;;5109897;28;19954;-80
2022/03/03 11:44:40;;;;;;;;;;;8.50;39.50;;;;;;5111294;28;19919;-79
2022/03/03 11:47:21;;;;;;;;;;;8.80;40.30;;;;;;5106464;28;20191;-80
2022/03/03 11:50:07;;;;;;;;;;;9.00;40.30;;;;;;5105820;28;19912;-80
2022/03/03 11:52:33;;;;;;;;;;;9.30;39.30;;;;;;5103973;28;19977;-80
2022/03/03 11:55:18;;;;;;;;;;;9.30;38.10;;;;;;5105088;28;20022;-80
2022/03/03 11:57:44;;;;;;;;;;;9.20;40.70;;;;;;5104316;28;19998;-80
2022/03/03 12:00:14;;;;;;;;;;;9.30;39.10;;;;;;5106130;28;20015;-80
2022/03/03 12:02:52;;;;;;;;;;;9.40;40.00;;;;;;5103184;28;20247;-79
2022/03/03 12:05:26;;;;;;;;;;;9.70;39.80;;;;;;5102615;28;19908;-80
2022/03/03 12:07:57;;;;;;;;;;;9.90;40.60;;;;;;5101895;28;19916;-80
2022/03/03 12:10:22;;;;;;;;;;;10.30;39.10;;;;;;5103000;28;19993;-81
2022/03/03 12:12:48;;;;;;;;;;;10.60;39.20;;;;;;5083161;28;19912;-79
2022/03/03 12:15:14;;;;;;;;;;;11.00;39.70;;;;;;5102677;28;20104;-79
2022/03/03 12:17:44;;;;;;;;;;;11.30;39.50;;;;;;5102132;28;20109;-80
2022/03/03 12:20:32;;;;;;;;;;;11.20;37.00;;;;;;5084370;28;20009;-80
2022/03/03 12:23:10;;;;;;;;;;;11.50;38.60;;;;;;5082913;28;20506;-80
2022/03/03 12:25:47;;;;;;;;;;;11.70;36.40;;;;;;5101549;28;19934;-80
2022/03/03 12:28:23;;;;;;;;;;;11.80;35.30;;;;;;5102156;28;19933;-80
2022/03/03 12:30:50;;;;;;;;;;;12.00;37.30;;;;;;5102155;28;20003;-79
2022/03/03 12:33:28;;;;;;;;;;;12.10;37.70;;;;;;5101786;28;19908;-80
2022/03/03 12:36:02;;;;;;;;;;;12.30;36.40;;;;;;5101479;28;19915;-81
2022/03/03 12:38:28;;;;;;;;;;;12.40;36.20;;;;;;5082775;28;19918;-80
2022/03/03 12:40:55;;;;;;;;;;;12.30;33.90;;;;;;5100928;28;19999;-80
2022/03/03 12:43:21;;;;;;;;;;;12.20;33.50;;;;;;5101822;28;19920;-81
2022/03/03 12:45:48;;;;;;;;;;;12.10;33.30;;;;;;5102533;28;19926;-80
2022/03/03 12:48:14;;;;;;;;;;;12.20;33.70;;;;;;5110881;28;19961;-80
2022/03/03 12:50:40;;;;;;;;;;;12.20;33.40;;;;;;5104629;28;19932;-80
2022/03/03 12:53:05;;;;;;;;;;;12.20;32.80;;;;;;5101511;28;20304;-80
2022/03/03 12:55:35;;;;;;;;;;;12.40;33.90;;;;;;5100754;28;20012;-80
2022/03/03 12:58:03;;;;;;;;;;;12.50;33.20;;;;;;5082231;28;19984;-80
2022/03/03 13:00:32;;;;;;;;;;;12.80;33.90;;;;;;5082028;28;20011;-80
2022/03/03 13:02:59;;;;;;;;;;;12.90;33.50;;;;;;5100910;28;20184;-80
2022/03/03 13:05:39;;;;;;;;;;;12.90;31.80;;;;;;5101298;28;19918;-80
2022/03/03 13:08:07;;;;;;;;;;;12.10;32.50;;;;;;5082925;28;19923;-80
2022/03/03 13:10:33;;;;;;;;;;;12.50;33.60;;;;;;5103461;28;20271;-80
2022/03/03 13:12:59;;;;;;;;;;;12.70;32.20;;;;;;5100623;28;19920;-80
2022/03/03 13:15:35;;;;;;;;;;;13.00;33.80;;;;;;5108191;28;19908;-80
2022/03/03 13:18:08;;;;;;;;;;;13.00;31.80;;;;;;5104742;28;19934;-81
2022/03/03 13:20:38;;;;;;;;;;;13.20;31.50;;;;;;5100597;28;20101;-81
2022/03/03 13:23:04;;;;;;;;;;;13.50;32.50;;;;;;5081493;28;19950;-81
2022/03/03 13:25:30;;;;;;;;;;;13.60;31.00;;;;;;5081234;28;19947;-82
2022/03/03 13:27:56;;;;;;;;;;;13.70;30.00;;;;;;5099744;28;20218;-80
2022/03/03 13:30:22;;;;;;;;;;;13.80;30.00;;;;;;5099582;28;20350;-80
2022/03/03 13:32:48;;;;;;;;;;;14.00;30.70;;;;;;5099345;28;19908;-81
2022/03/03 13:35:14;;;;;;;;;;;14.30;30.30;;;;;;5099637;28;19916;-81
2022/03/03 13:37:42;;;;;;;;;;;14.30;29.10;;;;;;5099932;28;20325;-80
2022/03/03 13:40:18;;;;;;;;;;;14.30;30.90;;;;;;5101257;28;19938;-80
2022/03/03 13:42:44;;;;;;;;;;;14.40;29.70;;;;;;5102328;28;20508;-79
2022/03/03 13:45:10;;;;;;;;;;;14.40;28.60;;;;;;5099422;28;19983;-79
2022/03/03 13:47:41;;;;;;;;;;;14.30;28.40;;;;;;5099050;28;20576;-78
2022/03/03 13:50:08;;;;;;;;;;;13.80;28.30;;;;;;5099511;28;20018;-80
2022/03/03 13:52:35;;;;;;;;;;;13.60;29.10;;;;;;5098846;28;19919;-79
2022/03/03 13:55:02;;;;;;;;;;;14.00;29.70;;;;;;5098923;28;19934;-80
2022/03/03 13:57:38;;;;;;;;;;;13.70;28.80;;;;;;5080982;28;20341;-79
2022/03/03 14:00:06;;;;;;;;;;;12.50;29.70;;;;;;5099474;28;19908;-79
2022/03/03 14:02:32;;;;;;;;;;;12.80;29.60;;;;;;5098785;28;20431;-80
2022/03/03 14:05:05;;;;;;;;;;;13.20;30.10;;;;;;5098653;28;19912;-80
2022/03/03 14:07:32;;;;;;;;;;;13.40;29.00;;;;;;5099027;28;20160;-82
2022/03/03 14:10:03;;;;;;;;;;;13.60;28.70;;;;;;5098728;28;20002;-80
2022/03/03 14:12:29;;;;;;;;;;;13.70;28.90;;;;;;5098256;28;20058;-80
2022/03/03 14:14:55;;;;;;;;;;;14.20;29.30;;;;;;5098463;28;20014;-80
2022/03/03 14:17:21;;;;;;;;;;;14.60;29.50;;;;;;5080025;28;20302;-80
2022/03/03 14:19:46;;;;;;;;;;;15.00;29.00;;;;;;5079911;28;19920;-81
2022/03/03 14:22:16;;;;;;;;;;;15.20;28.00;;;;;;5098595;28;20245;-80
2022/03/03 14:24:41;;;;;;;;;;;15.00;28.40;;;;;;5098317;28;20389;-80
2022/03/03 14:27:07;;;;;;;;;;;15.20;28.10;;;;;;5098087;28;19926;-80